Time;durP1;ratioP1;P1;durP2;ratioP2;P2;SDS_P1;SDS_P2;PMS_P1;PMS_P2;Temp;Humidity;BMP_temperature;BMP_pressure;BME280_temperature;BME280_humidity;BME280_pressure;Samples;Min_cycle;Max_cycle;Signal;HPM_P1;HPM_P2
2022/11/27 00:01:32;;;;;;;;;;;;;;;;;;4990796;28;1934;-45
2022/11/27 00:03:59;;;;;;;;;;;;;;;;;;4990737;28;1941;-43
2022/11/27 00:06:27;;;;;;;;;;;;;;;;;;4990871;28;1916;-46
2022/11/27 00:08:58;;;;;;;;;;;;;;;;;;4990774;28;1948;-47
2022/11/27 00:11:25;;;;;;;;;;;;;;;;;;4990504;28;1976;-45
2022/11/27 00:13:53;;;;;;;;;;;;;;;;;;4990317;28;1567;-46
2022/11/27 00:16:23;;;;;;;;;;;;;;;;;;4990931;28;2123;-45
2022/11/27 00:18:51;;;;;;;;;;;;;;;;;;5002266;28;2050;-45
2022/11/27 00:21:22;;;;;;;;;;;;;;;;;;5009970;28;2103;-44
2022/11/27 00:23:50;;;;;;;;;;;;;;;;;;5009962;28;2044;-47
2022/11/27 00:26:18;;;;;;;;;;;;;;;;;;5009953;28;1989;-47
2022/11/27 00:28:45;;;;;;;;;;;;;;;;;;5010108;28;2081;-48
2022/11/27 00:31:20;;;;;;;;;;;;;;;;;;5009551;28;2003;-44
2022/11/27 00:33:49;;;;;;;;;;;;;;;;;;5010036;28;2102;-45
2022/11/27 00:36:16;;;;;;;;;;;;;;;;;;5010154;28;1936;-45
2022/11/27 00:38:43;;;;;;;;;;;;;;;;;;5012060;28;2076;-45
2022/11/27 00:41:13;;;;;;;;;;;;;;;;;;5011344;28;1931;-46
2022/11/27 00:43:41;;;;;;;;;;;;;;;;;;5011252;28;2143;-45
2022/11/27 00:46:14;;;;;;;;;;;;;;;;;;5011450;28;2197;-48
2022/11/27 00:48:42;;;;;;;;;;;;;;;;;;5011463;28;1741;-43
2022/11/27 00:51:10;;;;;;;;;;;;;;;;;;5011250;28;1904;-45
2022/11/27 00:53:37;;;;;;;;;;;;;;;;;;5011381;28;2134;-44
2022/11/27 00:56:04;;;;;;;;;;;;;;;;;;5011278;28;1992;-47
2022/11/27 00:58:31;;;;;;;;;;;;;;;;;;5011109;28;1595;-48
2022/11/27 01:01:05;;;;;;;;;;;;;;;;;;5011288;28;2002;-46
2022/11/27 01:03:33;;;;;;;;;;;;;;;;;;5011198;28;1933;-46
2022/11/27 01:06:04;;;;;;;;;;;;;;;;;;5011007;28;1864;-47
2022/11/27 01:08:31;;;;;;;;;;;;;;;;;;5011125;28;1895;-46
2022/11/27 01:10:59;;;;;;;;;;;;;;;;;;5014447;28;1989;-44
2022/11/27 01:13:27;;;;;;;;;;;;;;;;;;5014787;28;1969;-46
2022/11/27 01:16:03;;;;;;;;;;;;;;;;;;5014743;28;2302;-46
2022/11/27 01:18:31;;;;;;;;;;;;;;;;;;5005776;28;2151;-46
2022/11/27 01:20:58;;;;;;;;;;;;;;;;;;4995219;28;2146;-47
2022/11/27 01:23:25;;;;;;;;;;;;;;;;;;4994764;28;2178;-45
2022/11/27 01:25:52;;;;;;;;;;;;;;;;;;4995392;28;2169;-45
2022/11/27 01:28:20;;;;;;;;;;;;;;;;;;5010444;28;1976;-47
2022/11/27 01:30:48;;;;;;;;;;;;;;;;;;5010168;28;1939;-43
2022/11/27 01:33:15;;;;;;;;;;;;;;;;;;4995126;28;1925;-47
2022/11/27 01:35:42;;;;;;;;;;;;;;;;;;4994701;28;2002;-45
2022/11/27 01:38:09;;;;;;;;;;;;;;;;;;5009743;28;2103;-48
2022/11/27 01:40:36;;;;;;;;;;;;;;;;;;4994970;28;2101;-46
2022/11/27 01:43:04;;;;;;;;;;;;;;;;;;4994977;28;1848;-46
2022/11/27 01:45:32;;;;;;;;;;;;;;;;;;4994781;28;2074;-46
2022/11/27 01:48:00;;;;;;;;;;;;;;;;;;4994797;28;2063;-45
2022/11/27 01:50:29;;;;;;;;;;;;;;;;;;4993472;28;2082;-42
2022/11/27 01:53:06;;;;;;;;;;;;;;;;;;4994561;28;1984;-46
2022/11/27 01:55:39;;;;;;;;;;;;;;;;;;4994524;28;2068;-45
2022/11/27 01:58:08;;;;;;;;;;;;;;;;;;4994482;28;2046;-47
2022/11/27 02:00:35;;;;;;;;;;;;;;;;;;4994638;28;2161;-45
2022/11/27 02:03:03;;;;;;;;;;;;;;;;;;4994125;28;2081;-48
2022/11/27 02:05:30;;;;;;;;;;;;;;;;;;5009225;28;1848;-45
2022/11/27 02:07:59;;;;;;;;;;;;;;;;;;4994474;28;1967;-43
2022/11/27 02:10:37;;;;;;;;;;;;;;;;;;4994520;28;1792;-45
2022/11/27 02:13:08;;;;;;;;;;;;;;;;;;4994232;28;2057;-46
2022/11/27 02:15:42;;;;;;;;;;;;;;;;;;4994286;28;2156;-45
2022/11/27 02:18:12;;;;;;;;;;;;;;;;;;5000223;28;2033;-47
2022/11/27 02:20:59;;;;;;;;;;;;;;;;;;5013305;28;1840;-47
2022/11/27 02:23:55;;;;;;;;;;;;;;;;;;5013241;28;1873;-45
2022/11/27 02:26:29;;;;;;;;;;;;;;;;;;5003524;28;1936;-47
2022/11/27 02:29:05;;;;;;;;;;;;;;;;;;4994052;28;1955;-45
2022/11/27 02:31:57;;;;;;;;;;;;;;;;;;4993752;28;2115;-45
2022/11/27 02:34:27;;;;;;;;;;;;;;;;;;4993843;28;1845;-46
2022/11/27 02:37:01;;;;;;;;;;;;;;;;;;4994116;28;1898;-48
2022/11/27 02:39:35;;;;;;;;;;;;;;;;;;4993686;28;2195;-44
2022/11/27 02:42:06;;;;;;;;;;;;;;;;;;5005545;28;2338;-46
2022/11/27 02:44:35;;;;;;;;;;;;;;;;;;5013039;28;2062;-42
2022/11/27 02:47:03;;;;;;;;;;;;;;;;;;5013340;28;2006;-44
2022/11/27 02:49:31;;;;;;;;;;;;;;;;;;5012927;28;1847;-45
2022/11/27 02:51:59;;;;;;;;;;;;;;;;;;5012875;28;1971;-45
2022/11/27 02:54:28;;;;;;;;;;;;;;;;;;5028326;28;2115;-44
2022/11/27 02:56:56;;;;;;;;;;;;;;;;;;5013482;28;2382;-46
2022/11/27 02:59:25;;;;;;;;;;;;;;;;;;5013219;28;1940;-46
2022/11/27 03:02:14;;;;;;;;;;;;;;;;;;5028240;28;2054;-46
2022/11/27 03:04:43;;;;;;;;;;;;;;;;;;5012938;28;2062;-45
2022/11/27 03:07:12;;;;;;;;;;;;;;;;;;5028053;28;2309;-48
2022/11/27 03:09:45;;;;;;;;;;;;;;;;;;5012704;28;1990;-46
2022/11/27 03:12:13;;;;;;;;;;;;;;;;;;5012507;28;2112;-45
2022/11/27 03:14:41;;;;;;;;;;;;;;;;;;5012875;28;1980;-47
2022/11/27 03:17:14;;;;;;;;;;;;;;;;;;5012752;28;1962;-48
2022/11/27 03:19:47;;;;;;;;;;;;;;;;;;4994153;28;2113;-47
2022/11/27 03:22:15;;;;;;;;;;;;;;;;;;5007761;28;2369;-45
2022/11/27 03:24:42;;;;;;;;;;;;;;;;;;4993053;28;2051;-47
2022/11/27 03:27:12;;;;;;;;;;;;;;;;;;4993032;28;2111;-46
2022/11/27 03:29:42;;;;;;;;;;;;;;;;;;4992597;28;1890;-47
2022/11/27 03:32:10;;;;;;;;;;;;;;;;;;4991763;28;1952;-48
2022/11/27 03:34:38;;;;;;;;;;;;;;;;;;4991053;28;1825;-49
2022/11/27 03:37:05;;;;;;;;;;;;;;;;;;5006256;28;1940;-48
2022/11/27 03:39:34;;;;;;;;;;;;;;;;;;4991146;28;1798;-45
2022/11/27 03:42:07;;;;;;;;;;;;;;;;;;4991040;28;1950;-47
2022/11/27 03:44:40;;;;;;;;;;;;;;;;;;4991155;28;1921;-44
2022/11/27 03:47:16;;;;;;;;;;;;;;;;;;4990908;28;1837;-47
2022/11/27 03:50:02;;;;;;;;;;;;;;;;;;4991157;28;2113;-46
2022/11/27 03:52:29;;;;;;;;;;;;;;;;;;4991010;28;2076;-47
2022/11/27 03:55:12;;;;;;;;;;;;;;;;;;4991233;28;2056;-51
2022/11/27 03:57:43;;;;;;;;;;;;;;;;;;4990670;28;2077;-45
2022/11/27 04:00:11;;;;;;;;;;;;;;;;;;4990812;28;1717;-48
2022/11/27 04:02:43;;;;;;;;;;;;;;;;;;4990877;28;1994;-45
2022/11/27 04:05:11;;;;;;;;;;;;;;;;;;4990744;28;2060;-47
2022/11/27 04:07:38;;;;;;;;;;;;;;;;;;4990727;28;2122;-45
2022/11/27 04:10:06;;;;;;;;;;;;;;;;;;4990639;28;1869;-47
2022/11/27 04:12:33;;;;;;;;;;;;;;;;;;4990576;28;2065;-44
2022/11/27 04:15:00;;;;;;;;;;;;;;;;;;4990735;28;2077;-45
2022/11/27 04:17:27;;;;;;;;;;;;;;;;;;4991335;28;2034;-45
2022/11/27 04:19:55;;;;;;;;;;;;;;;;;;5010143;28;2093;-44
2022/11/27 04:22:22;;;;;;;;;;;;;;;;;;5010206;28;1852;-48
2022/11/27 04:24:49;;;;;;;;;;;;;;;;;;5009919;28;2005;-46
2022/11/27 04:27:16;;;;;;;;;;;;;;;;;;4991654;28;2085;-45
2022/11/27 04:29:43;;;;;;;;;;;;;;;;;;4990409;28;1836;-44
2022/11/27 04:32:10;;;;;;;;;;;;;;;;;;4990495;28;1971;-46
2022/11/27 04:34:38;;;;;;;;;;;;;;;;;;4990414;28;1892;-49
2022/11/27 04:37:05;;;;;;;;;;;;;;;;;;4990278;28;2088;-49
2022/11/27 04:39:32;;;;;;;;;;;;;;;;;;4990768;28;1951;-46
2022/11/27 04:41:59;;;;;;;;;;;;;;;;;;4990399;28;1840;-43
2022/11/27 04:44:26;;;;;;;;;;;;;;;;;;4991540;28;2037;-44
2022/11/27 04:46:53;;;;;;;;;;;;;;;;;;4994314;28;1914;-47
2022/11/27 04:49:20;;;;;;;;;;;;;;;;;;4994162;28;2088;-46
2022/11/27 04:51:48;;;;;;;;;;;;;;;;;;4994186;28;2162;-44
2022/11/27 04:54:15;;;;;;;;;;;;;;;;;;4994274;28;1976;-48
2022/11/27 04:56:42;;;;;;;;;;;;;;;;;;4994209;28;1868;-47
2022/11/27 04:59:12;;;;;;;;;;;;;;;;;;4994165;28;2070;-46
2022/11/27 05:01:39;;;;;;;;;;;;;;;;;;4994132;28;1964;-47
2022/11/27 05:04:06;;;;;;;;;;;;;;;;;;4993893;28;1951;-45
2022/11/27 05:06:33;;;;;;;;;;;;;;;;;;4994283;28;2178;-45
2022/11/27 05:09:01;;;;;;;;;;;;;;;;;;4994026;28;2004;-46
2022/11/27 05:11:33;;;;;;;;;;;;;;;;;;4993868;28;2027;-48
2022/11/27 05:14:19;;;;;;;;;;;;;;;;;;4993914;28;1976;-45
2022/11/27 05:16:47;;;;;;;;;;;;;;;;;;4993678;28;1956;-46
2022/11/27 05:19:15;;;;;;;;;;;;;;;;;;5008958;28;2011;-46
2022/11/27 05:21:43;;;;;;;;;;;;;;;;;;5013429;28;1686;-46
2022/11/27 05:24:10;;;;;;;;;;;;;;;;;;5013105;28;1955;-44
2022/11/27 05:26:38;;;;;;;;;;;;;;;;;;5013349;28;1868;-46
2022/11/27 05:29:05;;;;;;;;;;;;;;;;;;5013248;28;1971;-47
2022/11/27 05:31:33;;;;;;;;;;;;;;;;;;5013452;28;2019;-44
2022/11/27 05:34:00;;;;;;;;;;;;;;;;;;5013147;28;1980;-45
2022/11/27 05:36:28;;;;;;;;;;;;;;;;;;5012843;28;1996;-47
2022/11/27 05:38:55;;;;;;;;;;;;;;;;;;5012993;28;1814;-48
2022/11/27 05:41:22;;;;;;;;;;;;;;;;;;5012980;28;2088;-48
2022/11/27 05:43:49;;;;;;;;;;;;;;;;;;5012512;28;1996;-45
2022/11/27 05:46:18;;;;;;;;;;;;;;;;;;5012601;28;1882;-43
2022/11/27 05:48:45;;;;;;;;;;;;;;;;;;5012644;28;1864;-46
2022/11/27 05:51:14;;;;;;;;;;;;;;;;;;5012689;28;1955;-45
2022/11/27 05:53:43;;;;;;;;;;;;;;;;;;5012888;28;2009;-43
2022/11/27 05:56:12;;;;;;;;;;;;;;;;;;5011320;28;1983;-46
2022/11/27 05:58:40;;;;;;;;;;;;;;;;;;5027747;28;1908;-44
2022/11/27 06:01:07;;;;;;;;;;;;;;;;;;5012737;28;2001;-48
2022/11/27 06:03:34;;;;;;;;;;;;;;;;;;5012975;28;2167;-45
2022/11/27 06:06:09;;;;;;;;;;;;;;;;;;5012447;28;1934;-45
2022/11/27 06:08:37;;;;;;;;;;;;;;;;;;5012870;28;2155;-47
2022/11/27 06:11:07;;;;;;;;;;;;;;;;;;5012407;28;1956;-49
2022/11/27 06:13:34;;;;;;;;;;;;;;;;;;5012552;28;1928;-46
2022/11/27 06:16:10;;;;;;;;;;;;;;;;;;5012236;28;1986;-44
2022/11/27 06:18:37;;;;;;;;;;;;;;;;;;4993071;28;2091;-47
2022/11/27 06:21:07;;;;;;;;;;;;;;;;;;5007601;28;1814;-45
2022/11/27 06:23:35;;;;;;;;;;;;;;;;;;4992429;28;2079;-45
2022/11/27 06:26:09;;;;;;;;;;;;;;;;;;4992655;28;1817;-46
2022/11/27 06:28:36;;;;;;;;;;;;;;;;;;4992666;28;1995;-45
2022/11/27 06:31:05;;;;;;;;;;;;;;;;;;4992898;28;1959;-45
2022/11/27 06:33:32;;;;;;;;;;;;;;;;;;4992268;28;2006;-45
2022/11/27 06:35:59;;;;;;;;;;;;;;;;;;4992451;28;1815;-44
2022/11/27 06:38:26;;;;;;;;;;;;;;;;;;4992458;28;1898;-43
2022/11/27 06:40:53;;;;;;;;;;;;;;;;;;4992226;28;1818;-47
2022/11/27 06:43:20;;;;;;;;;;;;;;;;;;4991549;28;1834;-47
2022/11/27 06:45:54;;;;;;;;;;;;;;;;;;4992287;28;1952;-45
2022/11/27 06:48:21;;;;;;;;;;;;;;;;;;4991997;28;1996;-46
2022/11/27 06:50:50;;;;;;;;;;;;;;;;;;4992254;28;2012;-47
2022/11/27 06:53:18;;;;;;;;;;;;;;;;;;4992092;28;2023;-45
2022/11/27 06:55:45;;;;;;;;;;;;;;;;;;4991885;28;2019;-42
2022/11/27 06:58:12;;;;;;;;;;;;;;;;;;4992589;28;2049;-44
2022/11/27 07:00:39;;;;;;;;;;;;;;;;;;4992033;28;1977;-48
2022/11/27 07:03:06;;;;;;;;;;;;;;;;;;4992168;28;1875;-44
2022/11/27 07:05:34;;;;;;;;;;;;;;;;;;4992161;28;1874;-46
2022/11/27 07:08:01;;;;;;;;;;;;;;;;;;4991857;28;1997;-46
2022/11/27 07:10:31;;;;;;;;;;;;;;;;;;4992166;28;1891;-46
2022/11/27 07:12:58;;;;;;;;;;;;;;;;;;4992244;28;1944;-45
2022/11/27 07:15:25;;;;;;;;;;;;;;;;;;4991908;28;2264;-45
2022/11/27 07:17:53;;;;;;;;;;;;;;;;;;4995813;28;1876;-45
2022/11/27 07:20:20;;;;;;;;;;;;;;;;;;5011739;28;1709;-46
2022/11/27 07:22:47;;;;;;;;;;;;;;;;;;5011407;28;2145;-47
2022/11/27 07:25:14;;;;;;;;;;;;;;;;;;5012156;28;1934;-44
2022/11/27 07:27:41;;;;;;;;;;;;;;;;;;5012641;28;2049;-42
2022/11/27 07:30:08;;;;;;;;;;;;;;;;;;5027307;28;1846;-47
2022/11/27 07:32:35;;;;;;;;;;;;;;;;;;5012545;28;2283;-45
2022/11/27 07:35:03;;;;;;;;;;;;;;;;;;5012364;28;1937;-44
2022/11/27 07:37:30;;;;;;;;;;;;;;;;;;5012577;28;2105;-47
2022/11/27 07:39:58;;;;;;;;;;;;;;;;;;5012304;28;1996;-44
2022/11/27 07:42:29;;;;;;;;;;;;;;;;;;5012223;28;1853;-44
2022/11/27 07:45:04;;;;;;;;;;;;;;;;;;5012416;28;1763;-46
2022/11/27 07:47:31;;;;;;;;;;;;;;;;;;5012216;28;1899;-45
2022/11/27 07:49:59;;;;;;;;;;;;;;;;;;5012093;28;1897;-48
2022/11/27 07:52:26;;;;;;;;;;;;;;;;;;5012181;28;2090;-44
2022/11/27 07:54:54;;;;;;;;;;;;;;;;;;5011831;28;1960;-46
2022/11/27 07:57:21;;;;;;;;;;;;;;;;;;5011963;28;2260;-47
2022/11/27 07:59:48;;;;;;;;;;;;;;;;;;5012207;28;2012;-43
2022/11/27 08:02:15;;;;;;;;;;;;;;;;;;5012374;28;2066;-45
2022/11/27 08:04:42;;;;;;;;;;;;;;;;;;5012054;28;2104;-44
2022/11/27 08:07:10;;;;;;;;;;;;;;;;;;5011846;28;1889;-47
2022/11/27 08:09:38;;;;;;;;;;;;;;;;;;5011515;28;2005;-46
2022/11/27 08:12:05;;;;;;;;;;;;;;;;;;5011884;28;1982;-46
2022/11/27 08:14:32;;;;;;;;;;;;;;;;;;5011772;28;2049;-47
2022/11/27 08:16:59;;;;;;;;;;;;;;;;;;5011520;28;1984;-45
2022/11/27 08:19:26;;;;;;;;;;;;;;;;;;4994524;28;1799;-49
2022/11/27 08:21:55;;;;;;;;;;;;;;;;;;4992124;28;1873;-47
2022/11/27 08:24:22;;;;;;;;;;;;;;;;;;4991505;28;2008;-46
2022/11/27 08:26:51;;;;;;;;;;;;;;;;;;4991968;28;2019;-48
2022/11/27 08:29:18;;;;;;;;;;;;;;;;;;4991992;28;1929;-43
2022/11/27 08:31:45;;;;;;;;;;;;;;;;;;4992248;28;1894;-45
2022/11/27 08:34:12;;;;;;;;;;;;;;;;;;4991675;28;1946;-47
2022/11/27 08:36:39;;;;;;;;;;;;;;;;;;4991839;28;2136;-46
2022/11/27 08:39:06;;;;;;;;;;;;;;;;;;4991886;28;1996;-45
2022/11/27 08:41:34;;;;;;;;;;;;;;;;;;4991773;28;2055;-45
2022/11/27 08:44:01;;;;;;;;;;;;;;;;;;4992042;28;1966;-43
2022/11/27 08:46:32;;;;;;;;;;;;;;;;;;4991931;28;2163;-45
2022/11/27 08:48:59;;;;;;;;;;;;;;;;;;4991483;28;1798;-45
2022/11/27 08:51:26;;;;;;;;;;;;;;;;;;4991411;28;1993;-45
2022/11/27 08:53:54;;;;;;;;;;;;;;;;;;4991783;28;1975;-45
2022/11/27 08:56:22;;;;;;;;;;;;;;;;;;4991811;28;2136;-45
2022/11/27 08:58:49;;;;;;;;;;;;;;;;;;4991622;28;1951;-49
2022/11/27 09:01:18;;;;;;;;;;;;;;;;;;4991803;28;1939;-45
2022/11/27 09:03:46;;;;;;;;;;;;;;;;;;4991716;28;2095;-45
2022/11/27 09:06:15;;;;;;;;;;;;;;;;;;4991737;28;1959;-45
2022/11/27 09:08:43;;;;;;;;;;;;;;;;;;4991509;28;2141;-48
2022/11/27 09:11:11;;;;;;;;;;;;;;;;;;4991638;28;2177;-45
2022/11/27 09:13:39;;;;;;;;;;;;;;;;;;4990930;28;1994;-47
2022/11/27 09:16:08;;;;;;;;;;;;;;;;;;4991164;28;2055;-44
2022/11/27 09:18:35;;;;;;;;;;;;;;;;;;5001081;28;2081;-48
2022/11/27 09:21:04;;;;;;;;;;;;;;;;;;5010815;28;1999;-45
2022/11/27 09:23:31;;;;;;;;;;;;;;;;;;5010551;28;2149;-46
2022/11/27 09:25:59;;;;;;;;;;;;;;;;;;5010975;28;2172;-43
2022/11/27 09:28:26;;;;;;;;;;;;;;;;;;5010980;28;2035;-46
2022/11/27 09:30:58;;;;;;;;;;;;;;;;;;5012671;28;1954;-48
2022/11/27 09:33:25;;;;;;;;;;;;;;;;;;5014799;28;1895;-46
2022/11/27 09:35:52;;;;;;;;;;;;;;;;;;5014900;28;1995;-44
2022/11/27 09:38:20;;;;;;;;;;;;;;;;;;5014925;28;1919;-45
2022/11/27 09:40:51;;;;;;;;;;;;;;;;;;5014560;28;1954;-45
2022/11/27 09:43:24;;;;;;;;;;;;;;;;;;5014543;28;2019;-42
2022/11/27 09:45:55;;;;;;;;;;;;;;;;;;5014662;28;2051;-47
2022/11/27 09:48:41;;;;;;;;;;;;;;;;;;5014477;28;2156;-44
2022/11/27 09:51:13;;;;;;;;;;;;;;;;;;5014484;28;2092;-45
2022/11/27 09:53:55;;;;;;;;;;;;;;;;;;5014354;28;1994;-46
2022/11/27 09:56:22;;;;;;;;;;;;;;;;;;5014364;28;2256;-47
2022/11/27 09:58:54;;;;;;;;;;;;;;;;;;5014261;28;2042;-44
2022/11/27 10:01:32;;;;;;;;;;;;;;;;;;5029363;28;2067;-47
2022/11/27 10:04:10;;;;;;;;;;;;;;;;;;5014184;28;1365;-46
2022/11/27 10:06:37;;;;;;;;;;;;;;;;;;5013945;28;1914;-46
2022/11/27 10:09:11;;;;;;;;;;;;;;;;;;5013820;28;1803;-44
2022/11/27 10:11:44;;;;;;;;;;;;;;;;;;5014006;28;2066;-43
2022/11/27 10:14:30;;;;;;;;;;;;;;;;;;5013855;28;1971;-45
2022/11/27 10:17:11;;;;;;;;;;;;;;;;;;5013863;28;2033;-48
2022/11/27 10:20:10;;;;;;;;;;;;;;;;;;4995686;28;1915;-45
2022/11/27 10:22:56;;;;;;;;;;;;;;;;;;4982202;28;2016;-46
2022/11/27 10:25:26;;;;;;;;;;;;;;;;;;4994106;28;2048;-44
2022/11/27 10:28:23;;;;;;;;;;;;;;;;;;4994313;28;2183;-45
2022/11/27 10:30:53;;;;;;;;;;;;;;;;;;4974998;28;1753;-41
2022/11/27 10:33:29;;;;;;;;;;;;;;;;;;4993594;28;1903;-46
2022/11/27 10:35:57;;;;;;;;;;;;;;;;;;4993486;28;2121;-48
2022/11/27 10:38:25;;;;;;;;;;;;;;;;;;4993904;28;2121;-43
2022/11/27 10:40:52;;;;;;;;;;;;;;;;;;4994071;28;1988;-45
2022/11/27 10:43:23;;;;;;;;;;;;;;;;;;4993111;28;2167;-46
2022/11/27 10:46:19;;;;;;;;;;;;;;;;;;4993601;28;2003;-46
2022/11/27 10:48:47;;;;;;;;;;;;;;;;;;4988999;28;1978;-48
2022/11/27 10:51:19;;;;;;;;;;;;;;;;;;4993493;28;1961;-45
2022/11/27 10:53:49;;;;;;;;;;;;;;;;;;4993290;28;2080;-48
2022/11/27 10:56:35;;;;;;;;;;;;;;;;;;4993411;28;1965;-51
2022/11/27 10:59:05;;;;;;;;;;;;;;;;;;4993572;28;2002;-48
2022/11/27 11:01:46;;;;;;;;;;;;;;;;;;4993477;28;2154;-48
2022/11/27 11:04:14;;;;;;;;;;;;;;;;;;4993397;28;2033;-49
2022/11/27 11:07:01;;;;;;;;;;;;;;;;;;4993237;28;2006;-46
2022/11/27 11:09:30;;;;;;;;;;;;;;;;;;4993490;28;2017;-47
2022/11/27 11:12:19;;;;;;;;;;;;;;;;;;4993302;28;1990;-44
2022/11/27 11:14:56;;;;;;;;;;;;;;;;;;4992959;28;1987;-45
2022/11/27 11:17:27;;;;;;;;;;;;;;;;;;4993326;28;1939;-47
2022/11/27 11:19:54;;;;;;;;;;;;;;;;;;4988547;28;2462;-43
2022/11/27 11:22:23;;;;;;;;;;;;;;;;;;4973785;28;1985;-46
2022/11/27 11:24:51;;;;;;;;;;;;;;;;;;4987582;28;1936;-44
2022/11/27 11:27:24;;;;;;;;;;;;;;;;;;4992874;28;2046;-44
2022/11/27 11:29:57;;;;;;;;;;;;;;;;;;4992973;28;1936;-46
2022/11/27 11:32:25;;;;;;;;;;;;;;;;;;4993118;28;2068;-46
2022/11/27 11:35:02;;;;;;;;;;;;;;;;;;4992753;28;1969;-46
2022/11/27 11:37:31;;;;;;;;;;;;;;;;;;4992873;28;1968;-44
2022/11/27 11:40:04;;;;;;;;;;;;;;;;;;4992473;28;2050;-46
2022/11/27 11:42:32;;;;;;;;;;;;;;;;;;4992767;28;1959;-45
2022/11/27 11:45:15;;;;;;;;;;;;;;;;;;4992233;28;1887;-43
2022/11/27 11:47:46;;;;;;;;;;;;;;;;;;4991180;28;2059;-46
2022/11/27 11:50:17;;;;;;;;;;;;;;;;;;4991158;28;1839;-46
2022/11/27 11:52:53;;;;;;;;;;;;;;;;;;4990721;28;1928;-45
2022/11/27 11:55:20;;;;;;;;;;;;;;;;;;4990901;28;1907;-44
2022/11/27 11:57:56;;;;;;;;;;;;;;;;;;4990848;28;1954;-45
2022/11/27 12:00:29;;;;;;;;;;;;;;;;;;4993509;28;1931;-46
2022/11/27 12:03:30;;;;;;;;;;;;;;;;;;5010050;28;2007;-45
2022/11/27 12:05:58;;;;;;;;;;;;;;;;;;4990968;28;1831;-47
2022/11/27 12:08:27;;;;;;;;;;;;;;;;;;5010407;28;1964;-46
2022/11/27 12:11:06;;;;;;;;;;;;;;;;;;5010395;28;1902;-45
2022/11/27 12:13:41;;;;;;;;;;;;;;;;;;5010113;28;1827;-45
2022/11/27 12:16:28;;;;;;;;;;;;;;;;;;5010081;28;2219;-46
2022/11/27 12:19:14;;;;;;;;;;;;;;;;;;4997575;28;1883;-45
2022/11/27 12:21:44;;;;;;;;;;;;;;;;;;5005370;28;2041;-45
2022/11/27 12:24:14;;;;;;;;;;;;;;;;;;4990335;28;2132;-47
2022/11/27 12:26:55;;;;;;;;;;;;;;;;;;4990974;28;1888;-46
2022/11/27 12:29:23;;;;;;;;;;;;;;;;;;4992068;28;1936;-45
2022/11/27 12:32:03;;;;;;;;;;;;;;;;;;4992099;28;2030;-45
2022/11/27 12:34:42;;;;;;;;;;;;;;;;;;4991882;28;1994;-46
2022/11/27 12:37:09;;;;;;;;;;;;;;;;;;4991773;28;2011;-45
2022/11/27 12:39:58;;;;;;;;;;;;;;;;;;5006664;28;1947;-47
2022/11/27 12:42:28;;;;;;;;;;;;;;;;;;4991653;28;1922;-46
2022/11/27 12:44:59;;;;;;;;;;;;;;;;;;4991754;28;2180;-46
2022/11/27 12:47:29;;;;;;;;;;;;;;;;;;4991808;28;1796;-46
2022/11/27 12:50:01;;;;;;;;;;;;;;;;;;4991714;28;1955;-49
2022/11/27 12:52:34;;;;;;;;;;;;;;;;;;5007001;28;2119;-45
2022/11/27 12:55:07;;;;;;;;;;;;;;;;;;4991812;28;2032;-48
2022/11/27 12:57:47;;;;;;;;;;;;;;;;;;4992023;28;1870;-45
2022/11/27 13:00:19;;;;;;;;;;;;;;;;;;4991752;28;1998;-47
2022/11/27 13:03:05;;;;;;;;;;;;;;;;;;4991629;28;1534;-46
2022/11/27 13:05:45;;;;;;;;;;;;;;;;;;4992483;28;1995;-47
2022/11/27 13:08:12;;;;;;;;;;;;;;;;;;4995654;28;1957;-46
2022/11/27 13:10:48;;;;;;;;;;;;;;;;;;4995620;28;2184;-46
2022/11/27 13:13:23;;;;;;;;;;;;;;;;;;5010508;28;2064;-47
2022/11/27 13:15:56;;;;;;;;;;;;;;;;;;4995454;28;1968;-44
2022/11/27 13:18:27;;;;;;;;;;;;;;;;;;5003382;28;2229;-47
2022/11/27 13:20:58;;;;;;;;;;;;;;;;;;5015148;28;1846;-48
2022/11/27 13:23:29;;;;;;;;;;;;;;;;;;5014709;28;2087;-50
2022/11/27 13:25:57;;;;;;;;;;;;;;;;;;5014891;28;1850;-47
2022/11/27 13:28:24;;;;;;;;;;;;;;;;;;5014895;28;1819;-44
2022/11/27 13:30:53;;;;;;;;;;;;;;;;;;5014838;28;1944;-48
2022/11/27 13:33:27;;;;;;;;;;;;;;;;;;5014727;28;1985;-47
2022/11/27 13:35:56;;;;;;;;;;;;;;;;;;5014343;28;2109;-45
2022/11/27 13:38:24;;;;;;;;;;;;;;;;;;5015014;28;2028;-46
2022/11/27 13:40:54;;;;;;;;;;;;;;;;;;5014434;28;1900;-46
2022/11/27 13:43:22;;;;;;;;;;;;;;;;;;5014594;28;1951;-44
2022/11/27 13:45:50;;;;;;;;;;;;;;;;;;5014452;28;1972;-46
2022/11/27 13:48:37;;;;;;;;;;;;;;;;;;5014454;28;1976;-46
2022/11/27 13:51:05;;;;;;;;;;;;;;;;;;5014313;28;2129;-46
2022/11/27 13:53:37;;;;;;;;;;;;;;;;;;5014194;28;1910;-44
2022/11/27 13:56:05;;;;;;;;;;;;;;;;;;5014404;28;1966;-45
2022/11/27 13:58:33;;;;;;;;;;;;;;;;;;5014024;28;1896;-45
2022/11/27 14:01:15;;;;;;;;;;;;;;;;;;5012889;28;1761;-46
2022/11/27 14:03:43;;;;;;;;;;;;;;;;;;5012550;28;1866;-46
2022/11/27 14:06:14;;;;;;;;;;;;;;;;;;5012359;28;1943;-46
2022/11/27 14:08:48;;;;;;;;;;;;;;;;;;5012543;28;1954;-45
2022/11/27 14:11:15;;;;;;;;;;;;;;;;;;5012551;28;1691;-45
2022/11/27 14:13:42;;;;;;;;;;;;;;;;;;5012479;28;1908;-44
2022/11/27 14:16:21;;;;;;;;;;;;;;;;;;5012390;28;1981;-45
2022/11/27 14:18:52;;;;;;;;;;;;;;;;;;4999979;28;1876;-45
2022/11/27 14:21:22;;;;;;;;;;;;;;;;;;4992981;28;1848;-45
2022/11/27 14:23:51;;;;;;;;;;;;;;;;;;4992484;28;2029;-45
2022/11/27 14:26:20;;;;;;;;;;;;;;;;;;4992753;28;1812;-46
2022/11/27 14:28:49;;;;;;;;;;;;;;;;;;4992569;28;1755;-44
2022/11/27 14:31:34;;;;;;;;;;;;;;;;;;4992577;28;2076;-45
2022/11/27 14:34:01;;;;;;;;;;;;;;;;;;4992265;28;2038;-45
2022/11/27 14:36:50;;;;;;;;;;;;;;;;;;4991918;28;1750;-47
2022/11/27 14:39:21;;;;;;;;;;;;;;;;;;4992285;28;1904;-45
2022/11/27 14:41:58;;;;;;;;;;;;;;;;;;4992332;28;1932;-44
2022/11/27 14:44:26;;;;;;;;;;;;;;;;;;4992235;28;1989;-47
2022/11/27 14:46:54;;;;;;;;;;;;;;;;;;4992420;28;2224;-44
2022/11/27 14:49:23;;;;;;;;;;;;;;;;;;4992271;28;1794;-46
2022/11/27 14:51:50;;;;;;;;;;;;;;;;;;4992073;28;2016;-45
2022/11/27 14:54:21;;;;;;;;;;;;;;;;;;4992226;28;1848;-47
2022/11/27 14:56:48;;;;;;;;;;;;;;;;;;4992120;28;2050;-45
2022/11/27 14:59:17;;;;;;;;;;;;;;;;;;4991873;28;1919;-47
2022/11/27 15:01:45;;;;;;;;;;;;;;;;;;4992068;28;1933;-47
2022/11/27 15:04:29;;;;;;;;;;;;;;;;;;4991980;28;1829;-43
2022/11/27 15:06:58;;;;;;;;;;;;;;;;;;4991981;28;1953;-49
2022/11/27 15:09:27;;;;;;;;;;;;;;;;;;4991977;28;1952;-48
2022/11/27 15:12:11;;;;;;;;;;;;;;;;;;4992059;28;2019;-46
2022/11/27 15:14:43;;;;;;;;;;;;;;;;;;4992352;28;1986;-45
2022/11/27 15:17:15;;;;;;;;;;;;;;;;;;4991797;28;1890;-45
2022/11/27 15:19:42;;;;;;;;;;;;;;;;;;5010633;28;2066;-47
2022/11/27 15:22:15;;;;;;;;;;;;;;;;;;5011229;28;1967;-45
2022/11/27 15:24:43;;;;;;;;;;;;;;;;;;5011298;28;1925;-44
2022/11/27 15:27:13;;;;;;;;;;;;;;;;;;5011020;28;1956;-46
2022/11/27 15:29:57;;;;;;;;;;;;;;;;;;5011163;28;1812;-45
2022/11/27 15:32:25;;;;;;;;;;;;;;;;;;5010931;28;1855;-45
2022/11/27 15:34:53;;;;;;;;;;;;;;;;;;5010878;28;1910;-43
2022/11/27 15:37:29;;;;;;;;;;;;;;;;;;5011164;28;1777;-48
2022/11/27 15:39:57;;;;;;;;;;;;;;;;;;5010624;28;1917;-46
2022/11/27 15:42:27;;;;;;;;;;;;;;;;;;5025969;28;1946;-47
2022/11/27 15:44:55;;;;;;;;;;;;;;;;;;5010963;28;1866;-46
2022/11/27 15:47:25;;;;;;;;;;;;;;;;;;5010921;28;1973;-46
2022/11/27 15:49:53;;;;;;;;;;;;;;;;;;5010894;28;2134;-47
2022/11/27 15:52:20;;;;;;;;;;;;;;;;;;5010695;28;2249;-47
2022/11/27 15:54:48;;;;;;;;;;;;;;;;;;5010553;28;2100;-47
2022/11/27 15:57:17;;;;;;;;;;;;;;;;;;5010641;28;2041;-43
2022/11/27 15:59:44;;;;;;;;;;;;;;;;;;5010915;28;1907;-50
2022/11/27 16:02:11;;;;;;;;;;;;;;;;;;5011024;28;1952;-46
2022/11/27 16:04:43;;;;;;;;;;;;;;;;;;5010460;28;1912;-45
2022/11/27 16:07:11;;;;;;;;;;;;;;;;;;5010663;28;2014;-47
2022/11/27 16:09:38;;;;;;;;;;;;;;;;;;5010527;28;2148;-45
2022/11/27 16:12:05;;;;;;;;;;;;;;;;;;5010275;28;1875;-45
2022/11/27 16:14:33;;;;;;;;;;;;;;;;;;5010288;28;1865;-46
2022/11/27 16:17:00;;;;;;;;;;;;;;;;;;5010414;28;1929;-46
2022/11/27 16:19:27;;;;;;;;;;;;;;;;;;4993206;28;1955;-49
2022/11/27 16:21:55;;;;;;;;;;;;;;;;;;4990862;28;2143;-47
2022/11/27 16:24:22;;;;;;;;;;;;;;;;;;4990504;28;1929;-45
2022/11/27 16:26:50;;;;;;;;;;;;;;;;;;4990409;28;1948;-47
2022/11/27 16:29:17;;;;;;;;;;;;;;;;;;4990658;28;2048;-42
2022/11/27 16:31:45;;;;;;;;;;;;;;;;;;4990514;28;1950;-49
2022/11/27 16:34:20;;;;;;;;;;;;;;;;;;5005667;28;1830;-47
2022/11/27 16:37:24;;;;;;;;;;;;;;;;;;4990773;28;2397;-47
2022/11/27 16:40:14;;;;;;;;;;;;;;;;;;4990292;28;1890;-45
2022/11/27 16:42:58;;;;;;;;;;;;;;;;;;4991181;28;1883;-45
2022/11/27 16:45:50;;;;;;;;;;;;;;;;;;4992585;28;2030;-48
2022/11/27 16:49:11;;;;;;;;;;;;;;;;;;4991860;28;1736;-48
2022/11/27 16:52:05;;;;;;;;;;;;;;;;;;5006991;28;1997;-49
2022/11/27 16:55:19;;;;;;;;;;;;;;;;;;5026629;28;2547;-49
2022/11/27 16:58:27;;;;;;;;;;;;;;;;;;5011348;28;2381;-46
2022/11/27 17:01:37;;;;;;;;;;;;;;;;;;5011373;28;1941;-46
2022/11/27 17:04:44;;;;;;;;;;;;;;;;;;5011314;28;2165;-44
2022/11/27 17:07:52;;;;;;;;;;;;;;;;;;5011228;28;1897;-45
2022/11/27 17:11:01;;;;;;;;;;;;;;;;;;5012238;28;2020;-47
2022/11/27 17:14:08;;;;;;;;;;;;;;;;;;5012016;28;1944;-48
2022/11/27 17:17:22;;;;;;;;;;;;;;;;;;5011289;28;1981;-46
2022/11/27 17:20:26;;;;;;;;;;;;;;;;;;4992276;28;2198;-46
2022/11/27 17:23:31;;;;;;;;;;;;;;;;;;4993066;28;1961;-47
2022/11/27 17:26:23;;;;;;;;;;;;;;;;;;5006510;28;1333;-46
2022/11/27 17:29:26;;;;;;;;;;;;;;;;;;4991612;28;2034;-45
2022/11/27 17:32:39;;;;;;;;;;;;;;;;;;4991320;28;2303;-47
2022/11/27 17:35:48;;;;;;;;;;;;;;;;;;4991375;28;1976;-47
2022/11/27 17:38:58;;;;;;;;;;;;;;;;;;4991792;28;2485;-46